Pagrindinis puslapis
METAR-TAF:

METAR-TAF

Oro uostai :

Tokatas, Turkija

platuma: 40-18N, ilguma: 036-34E, Aukštis: 608 m

Dabartinis oras

Ataskaita buvo paskelbta 10 valandos ir 15 minutes, ne 12:50 UTC
Vėjas 2 kt nuo kintamojo kryptimis
Temperatūra 12°C
Drėgmė 54%
Slėgis 1020 hPa
Matomumas: 8000 m

METAR: LTAW 041250Z VRB02KT 8000 NSC 12/03 Q1020

Laikas: 02:05 (23:05 UTC)

Prognozė

Ataskaita buvo paskelbta 9 valandos ir 25 minutes, ne 13:40 UTC
Prognozė galioja nuo 04 metu 15 UTC su 04 metu 24 UTC
Vėjas 2 kt nuo kintamojo kryptimis
Matomumas: 6000 m

TAF: LTAW 041340Z 0415/0424 VRB02KT 6000 NSC

Orai ataskaitas ir orų prognozės (METAR, TAF).

turimą stotys yra geltonos ir raudonos taškus žemėlapyje.

Perkelti pele per norėdami pamatyti stoties vardą.

Tada spustelėkite, norėdami matyti oro stebėjimo ir prognozės.

Norėdami pakeisti žemėlapį: spustelėkite ant žalios mygtukų su juodo kryžiaus žemyn,; žalią mygtuką su brūkšneliu, jei norite nutolinti; arba žalių rodyklių gretimoms žemėlapius.


METAR-TAF: